Pagrindinis puslapis
METAR-TAF:

METAR-TAF

Oro uostai :

Oro pajėgų bazė

Anapolis, Gojasas, Brazilija

platuma: 16-14S, ilguma: 048-58W, Aukštis: 1137 m

Dabartinis oras

Ataskaita buvo paskelbta 3 valandos ir 34 minutes, ne 01:00 UTC
Vėjas 7 kt iš Rytų/Pietryčių
Temperatūra 17°C
Drėgmė 55%
Slėgis 1022 hPa
Matomumas 10 km arba daugiau
nėra debesų žemiau 1500 m ir nėra kamuolinių lietaus debesų

METAR: SBAN 290100Z 12007KT CAVOK 17/08 Q1022

Laikas: 01:34 (04:34 UTC)

Prognozė

Ataskaita buvo paskelbta 7 valandos ir 34 minutes, ne 21:00 UTC
Prognozė galioja nuo 29 metu 00 UTC su 29 metu 12 UTC
Vėjas 3 kt iš Rytų/Pietryčių
Matomumas 10 km arba daugiau
nėra debesų žemiau 1500 m ir nėra kamuolinių lietaus debesų

TAF: SBAN 282100Z 2900/2912 12003KT CAVOK TN13/2906Z TX20/2912Z RMK PCO

Orai ataskaitas ir orų prognozės (METAR, TAF).

turimą stotys yra geltonos ir raudonos taškus žemėlapyje.

Perkelti pele per norėdami pamatyti stoties vardą.

Tada spustelėkite, norėdami matyti oro stebėjimo ir prognozės.

Norėdami pakeisti žemėlapį: spustelėkite ant žalios mygtukų su juodo kryžiaus žemyn,; žalią mygtuką su brūkšneliu, jei norite nutolinti; arba žalių rodyklių gretimoms žemėlapius.


METAR-TAF: